sensor_id;sensor_type;location;lat;lon;timestamp;pressure;altitude;pressure_sealevel;temperature;humidity
54876;BME280;40764;48.472;8.166;2022-10-17T00:03:14;98713.75;;;12.62;100.00
54876;BME280;40764;48.472;8.166;2022-10-17T00:09:14;98703.53;;;12.49;100.00
54876;BME280;40764;48.472;8.166;2022-10-17T00:15:17;98716.22;;;12.45;100.00
54876;BME280;40764;48.472;8.166;2022-10-17T00:21:18;98715.25;;;12.54;100.00
54876;BME280;40764;48.472;8.166;2022-10-17T00:27:19;98720.44;;;12.56;100.00
54876;BME280;40764;48.472;8.166;2022-10-17T00:33:19;98715.63;;;12.48;100.00
54876;BME280;40764;48.472;8.166;2022-10-17T00:39:19;98714.28;;;12.45;100.00
54876;BME280;40764;48.472;8.166;2022-10-17T00:45:24;98722.22;;;12.47;100.00
54876;BME280;40764;48.472;8.166;2022-10-17T00:51:36;98727.50;;;12.38;100.00
54876;BME280;40764;48.472;8.166;2022-10-17T00:57:38;98726.31;;;12.25;100.00
54876;BME280;40764;48.472;8.166;2022-10-17T01:03:38;98733.78;;;12.20;100.00
54876;BME280;40764;48.472;8.166;2022-10-17T01:09:40;98730.16;;;12.24;100.00
54876;BME280;40764;48.472;8.166;2022-10-17T01:34:30;98736.00;;;12.18;100.00
54876;BME280;40764;48.472;8.166;2022-10-17T01:40:36;98737.66;;;12.19;100.00
54876;BME280;40764;48.472;8.166;2022-10-17T01:46:40;98740.69;;;12.17;100.00
54876;BME280;40764;48.472;8.166;2022-10-17T01:52:47;98733.84;;;12.15;100.00
54876;BME280;40764;48.472;8.166;2022-10-17T01:58:52;98731.13;;;12.15;100.00
54876;BME280;40764;48.472;8.166;2022-10-17T02:04:56;98719.16;;;12.05;100.00
54876;BME280;40764;48.472;8.166;2022-10-17T02:11:02;98717.88;;;11.98;100.00
54876;BME280;40764;48.472;8.166;2022-10-17T02:17:18;98712.03;;;12.04;100.00
54876;BME280;40764;48.472;8.166;2022-10-17T02:23:53;98731.13;;;12.15;100.00
54876;BME280;40764;48.472;8.166;2022-10-17T02:30:46;98721.59;;;12.07;100.00
54876;BME280;40764;48.472;8.166;2022-10-17T02:36:22;98729.81;;;12.07;100.00
54876;BME280;40764;48.472;8.166;2022-10-17T02:42:26;98723.81;;;12.05;100.00
54876;BME280;40764;48.472;8.166;2022-10-17T02:48:36;98732.47;;;11.93;100.00
54876;BME280;40764;48.472;8.166;2022-10-17T02:54:42;98732.09;;;12.00;100.00
54876;BME280;40764;48.472;8.166;2022-10-17T03:00:45;98726.91;;;11.98;100.00
54876;BME280;40764;48.472;8.166;2022-10-17T03:06:46;98727.28;;;11.92;100.00
54876;BME280;40764;48.472;8.166;2022-10-17T03:12:47;98731.88;;;11.96;100.00
54876;BME280;40764;48.472;8.166;2022-10-17T03:18:47;98722.38;;;11.89;100.00
54876;BME280;40764;48.472;8.166;2022-10-17T03:24:48;98734.03;;;11.99;100.00
54876;BME280;40764;48.472;8.166;2022-10-17T03:30:48;98723.59;;;11.72;100.00
54876;BME280;40764;48.472;8.166;2022-10-17T03:36:48;98730.72;;;11.73;100.00
54876;BME280;40764;48.472;8.166;2022-10-17T03:42:49;98735.25;;;11.88;100.00
54876;BME280;40764;48.472;8.166;2022-10-17T03:48:49;98733.06;;;11.85;100.00
54876;BME280;40764;48.472;8.166;2022-10-17T03:54:50;98739.03;;;11.92;100.00
54876;BME280;40764;48.472;8.166;2022-10-17T04:00:50;98734.91;;;11.95;100.00
54876;BME280;40764;48.472;8.166;2022-10-17T04:06:51;98740.22;;;11.86;100.00
54876;BME280;40764;48.472;8.166;2022-10-17T04:12:51;98738.97;;;11.97;100.00
54876;BME280;40764;48.472;8.166;2022-10-17T04:18:56;98751.41;;;11.90;100.00
54876;BME280;40764;48.472;8.166;2022-10-17T04:24:56;98743.56;;;11.78;100.00
54876;BME280;40764;48.472;8.166;2022-10-17T04:31:06;98753.91;;;11.86;100.00
54876;BME280;40764;48.472;8.166;2022-10-17T04:37:07;98764.38;;;11.79;100.00
54876;BME280;40764;48.472;8.166;2022-10-17T04:43:07;98765.56;;;11.68;100.00
54876;BME280;40764;48.472;8.166;2022-10-17T04:49:08;98772.63;;;11.74;100.00
54876;BME280;40764;48.472;8.166;2022-10-17T04:55:08;98770.69;;;11.74;100.00
54876;BME280;40764;48.472;8.166;2022-10-17T05:01:20;98763.25;;;11.80;100.00
54876;BME280;40764;48.472;8.166;2022-10-17T05:07:20;98771.28;;;11.71;100.00
54876;BME280;40764;48.472;8.166;2022-10-17T05:13:21;98783.91;;;11.67;100.00
54876;BME280;40764;48.472;8.166;2022-10-17T05:19:21;98795.09;;;11.71;100.00
54876;BME280;40764;48.472;8.166;2022-10-17T05:25:21;98802.22;;;11.72;100.00
54876;BME280;40764;48.472;8.166;2022-10-17T05:31:22;98785.94;;;11.57;100.00
54876;BME280;40764;48.472;8.166;2022-10-17T05:37:22;98788.91;;;11.60;100.00
54876;BME280;40764;48.472;8.166;2022-10-17T05:43:22;98799.56;;;11.62;100.00
54876;BME280;40764;48.472;8.166;2022-10-17T05:49:23;98793.88;;;11.53;100.00
54876;BME280;40764;48.472;8.166;2022-10-17T05:55:23;98800.97;;;11.54;100.00
54876;BME280;40764;48.472;8.166;2022-10-17T06:01:24;98807.69;;;11.72;100.00
54876;BME280;40764;48.472;8.166;2022-10-17T06:07:24;98823.13;;;11.63;100.00
54876;BME280;40764;48.472;8.166;2022-10-17T06:13:24;98821.47;;;11.62;100.00
54876;BME280;40764;48.472;8.166;2022-10-17T06:19:25;98817.88;;;11.66;100.00
54876;BME280;40764;48.472;8.166;2022-10-17T06:25:25;98837.66;;;11.92;100.00
54876;BME280;40764;48.472;8.166;2022-10-17T06:31:25;98838.81;;;11.86;100.00
54876;BME280;40764;48.472;8.166;2022-10-17T06:37:30;98849.09;;;11.99;100.00
54876;BME280;40764;48.472;8.166;2022-10-17T06:43:31;98867.41;;;12.04;100.00
54876;BME280;40764;48.472;8.166;2022-10-17T06:49:31;98856.16;;;12.05;100.00
54876;BME280;40764;48.472;8.166;2022-10-17T06:55:33;98868.22;;;12.33;100.00
54876;BME280;40764;48.472;8.166;2022-10-17T07:01:33;98865.03;;;12.50;100.00
54876;BME280;40764;48.472;8.166;2022-10-17T07:07:34;98883.22;;;12.65;100.00
54876;BME280;40764;48.472;8.166;2022-10-17T07:13:34;98873.75;;;12.76;100.00
54876;BME280;40764;48.472;8.166;2022-10-17T07:19:34;98878.38;;;12.81;100.00
54876;BME280;40764;48.472;8.166;2022-10-17T07:25:35;98888.94;;;13.11;100.00
54876;BME280;40764;48.472;8.166;2022-10-17T07:31:36;98890.91;;;13.29;100.00
54876;BME280;40764;48.472;8.166;2022-10-17T07:37:37;98895.16;;;13.41;100.00
54876;BME280;40764;48.472;8.166;2022-10-17T07:43:37;98895.16;;;13.59;100.00
54876;BME280;40764;48.472;8.166;2022-10-17T07:49:38;98901.19;;;13.94;100.00
54876;BME280;40764;48.472;8.166;2022-10-17T07:55:45;98898.81;;;14.20;100.00
54876;BME280;40764;48.472;8.166;2022-10-17T08:01:46;98902.47;;;14.48;100.00
54876;BME280;40764;48.472;8.166;2022-10-17T08:07:50;98893.91;;;14.63;100.00
54876;BME280;40764;48.472;8.166;2022-10-17T08:13:50;98897.41;;;14.82;100.00
54876;BME280;40764;48.472;8.166;2022-10-17T08:19:51;98896.56;;;14.96;100.00
54876;BME280;40764;48.472;8.166;2022-10-17T08:25:51;98910.91;;;15.20;100.00
54876;BME280;40764;48.472;8.166;2022-10-17T08:31:51;98916.50;;;15.29;100.00
54876;BME280;40764;48.472;8.166;2022-10-17T08:37:52;98913.91;;;15.46;100.00
54876;BME280;40764;48.472;8.166;2022-10-17T08:44:04;98916.56;;;15.65;100.00
54876;BME280;40764;48.472;8.166;2022-10-17T08:50:34;98911.25;;;15.91;100.00
54876;BME280;40764;48.472;8.166;2022-10-17T08:56:42;98911.69;;;16.06;100.00
54876;BME280;40764;48.472;8.166;2022-10-17T09:02:56;98915.06;;;16.26;100.00
54876;BME280;40764;48.472;8.166;2022-10-17T09:21:43;98914.03;;;17.15;100.00
54876;BME280;40764;48.472;8.166;2022-10-17T09:27:47;98924.97;;;17.46;99.01
54876;BME280;40764;48.472;8.166;2022-10-17T09:33:50;98930.41;;;17.68;97.61
54876;BME280;40764;48.472;8.166;2022-10-17T09:39:51;98929.25;;;17.95;96.99
54876;BME280;40764;48.472;8.166;2022-10-17T09:46:09;98921.41;;;18.23;94.96
54876;BME280;40764;48.472;8.166;2022-10-17T09:52:38;98934.03;;;18.58;96.58
54876;BME280;40764;48.472;8.166;2022-10-17T10:11:07;98941.97;;;19.45;89.59
54876;BME280;40764;48.472;8.166;2022-10-17T10:17:46;98940.81;;;19.75;87.98
54876;BME280;40764;48.472;8.166;2022-10-17T10:30:19;98945.34;;;20.55;80.34
54876;BME280;40764;48.472;8.166;2022-10-17T10:36:21;98958.50;;;21.03;74.79
54876;BME280;40764;48.472;8.166;2022-10-17T10:42:31;98956.22;;;21.29;68.08
54876;BME280;40764;48.472;8.166;2022-10-17T10:48:35;98944.47;;;21.60;65.84
54876;BME280;40764;48.472;8.166;2022-10-17T10:54:41;98941.75;;;21.88;64.85
54876;BME280;40764;48.472;8.166;2022-10-17T11:00:43;98944.91;;;21.87;66.55
54876;BME280;40764;48.472;8.166;2022-10-17T11:06:44;98950.97;;;22.17;58.95
54876;BME280;40764;48.472;8.166;2022-10-17T11:12:53;98943.63;;;22.24;58.41
54876;BME280;40764;48.472;8.166;2022-10-17T11:19:15;98943.41;;;22.45;54.32
54876;BME280;40764;48.472;8.166;2022-10-17T11:25:37;98948.22;;;22.61;55.18
54876;BME280;40764;48.472;8.166;2022-10-17T11:31:44;98956.94;;;22.75;54.82
54876;BME280;40764;48.472;8.166;2022-10-17T11:37:52;98951.88;;;22.93;52.83
54876;BME280;40764;48.472;8.166;2022-10-17T11:44:20;98952.78;;;22.97;51.22
54876;BME280;40764;48.472;8.166;2022-10-17T11:50:41;98966.47;;;23.17;49.59
54876;BME280;40764;48.472;8.166;2022-10-17T12:03:28;98957.53;;;23.28;48.52
54876;BME280;40764;48.472;8.166;2022-10-17T12:09:40;98955.84;;;23.23;48.32
54876;BME280;40764;48.472;8.166;2022-10-17T12:15:45;98959.31;;;23.36;49.89
54876;BME280;40764;48.472;8.166;2022-10-17T12:21:58;98966.06;;;23.35;48.99
54876;BME280;40764;48.472;8.166;2022-10-17T12:34:15;98953.66;;;23.48;48.50
54876;BME280;40764;48.472;8.166;2022-10-17T12:46:50;98963.13;;;23.43;47.40
54876;BME280;40764;48.472;8.166;2022-10-17T12:52:57;98970.31;;;23.44;47.96
54876;BME280;40764;48.472;8.166;2022-10-17T12:59:07;98961.28;;;23.51;46.45
54876;BME280;40764;48.472;8.166;2022-10-17T13:05:21;98964.97;;;23.55;47.15
54876;BME280;40764;48.472;8.166;2022-10-17T13:11:26;98968.94;;;23.54;47.49
54876;BME280;40764;48.472;8.166;2022-10-17T13:17:29;98966.50;;;23.53;47.87
54876;BME280;40764;48.472;8.166;2022-10-17T13:23:33;98966.50;;;23.53;47.17
54876;BME280;40764;48.472;8.166;2022-10-17T13:29:33;98961.28;;;23.51;47.94
54876;BME280;40764;48.472;8.166;2022-10-17T13:35:35;98956.97;;;23.54;48.16
54876;BME280;40764;48.472;8.166;2022-10-17T13:41:38;98964.72;;;23.60;49.06
54876;BME280;40764;48.472;8.166;2022-10-17T13:47:40;98959.75;;;23.54;49.59
54876;BME280;40764;48.472;8.166;2022-10-17T13:53:40;98966.78;;;23.47;49.85
54876;BME280;40764;48.472;8.166;2022-10-17T13:59:52;98962.09;;;23.52;49.17
54876;BME280;40764;48.472;8.166;2022-10-17T14:12:08;98953.63;;;23.64;51.38
54876;BME280;40764;48.472;8.166;2022-10-17T14:18:23;98958.41;;;23.63;50.05
54876;BME280;40764;48.472;8.166;2022-10-17T14:24:28;98945.19;;;23.60;54.23
54876;BME280;40764;48.472;8.166;2022-10-17T14:30:31;98963.19;;;23.47;56.60
54876;BME280;40764;48.472;8.166;2022-10-17T14:36:35;98960.03;;;23.33;58.29
54876;BME280;40764;48.472;8.166;2022-10-17T14:42:38;98956.19;;;23.06;61.44
54876;BME280;40764;48.472;8.166;2022-10-17T14:48:40;98961.88;;;22.66;61.99
54876;BME280;40764;48.472;8.166;2022-10-17T14:54:44;98961.50;;;22.51;63.53
54876;BME280;40764;48.472;8.166;2022-10-17T15:00:47;98970.19;;;22.34;65.15
54876;BME280;40764;48.472;8.166;2022-10-17T15:06:53;98969.00;;;22.07;65.88
54876;BME280;40764;48.472;8.166;2022-10-17T15:12:53;98980.34;;;22.02;66.33
54876;BME280;40764;48.472;8.166;2022-10-17T15:18:54;98981.66;;;21.68;67.18
54876;BME280;40764;48.472;8.166;2022-10-17T15:24:54;98994.69;;;21.40;68.69
54876;BME280;40764;48.472;8.166;2022-10-17T15:30:54;98989.91;;;21.16;70.58
54876;BME280;40764;48.472;8.166;2022-10-17T15:36:55;98984.78;;;20.93;71.67
54876;BME280;40764;48.472;8.166;2022-10-17T15:42:56;98980.22;;;20.44;74.50
54876;BME280;40764;48.472;8.166;2022-10-17T15:49:01;98988.38;;;20.07;74.69
54876;BME280;40764;48.472;8.166;2022-10-17T15:55:02;99001.56;;;19.68;77.10
54876;BME280;40764;48.472;8.166;2022-10-17T16:01:03;98998.53;;;19.14;80.68
54876;BME280;40764;48.472;8.166;2022-10-17T16:07:04;99009.72;;;18.88;82.59
54876;BME280;40764;48.472;8.166;2022-10-17T16:13:05;99012.69;;;18.57;84.67
54876;BME280;40764;48.472;8.166;2022-10-17T16:19:05;99023.28;;;18.55;84.54
54876;BME280;40764;48.472;8.166;2022-10-17T16:25:15;99034.34;;;18.12;87.05
54876;BME280;40764;48.472;8.166;2022-10-17T16:31:25;99037.75;;;17.83;88.79
54876;BME280;40764;48.472;8.166;2022-10-17T16:37:28;99041.47;;;17.70;89.98
54876;BME280;40764;48.472;8.166;2022-10-17T16:43:28;99046.00;;;17.66;90.30
54876;BME280;40764;48.472;8.166;2022-10-17T16:49:36;99057.91;;;17.36;91.61
54876;BME280;40764;48.472;8.166;2022-10-17T16:55:36;99053.75;;;17.16;92.48
54876;BME280;40764;48.472;8.166;2022-10-17T17:01:37;99063.75;;;17.03;93.48
54876;BME280;40764;48.472;8.166;2022-10-17T17:07:37;99065.34;;;16.95;93.61
54876;BME280;40764;48.472;8.166;2022-10-17T17:13:38;99076.31;;;16.78;94.45
54876;BME280;40764;48.472;8.166;2022-10-17T17:19:39;99084.00;;;16.67;94.99
54876;BME280;40764;48.472;8.166;2022-10-17T17:25:40;99086.81;;;16.54;96.08
54876;BME280;40764;48.472;8.166;2022-10-17T17:31:43;99091.41;;;16.22;97.55
54876;BME280;40764;48.472;8.166;2022-10-17T17:37:46;99099.59;;;16.14;97.85
54876;BME280;40764;48.472;8.166;2022-10-17T17:43:47;99103.13;;;15.92;99.25
54876;BME280;40764;48.472;8.166;2022-10-17T17:49:48;99112.28;;;16.01;98.70
54876;BME280;40764;48.472;8.166;2022-10-17T17:56:21;99130.06;;;15.95;98.67
54876;BME280;40764;48.472;8.166;2022-10-17T18:02:20;99124.13;;;15.88;98.75
54876;BME280;40764;48.472;8.166;2022-10-17T18:08:20;99135.91;;;15.66;99.43
54876;BME280;40764;48.472;8.166;2022-10-17T18:14:21;99137.94;;;15.60;99.70
54876;BME280;40764;48.472;8.166;2022-10-17T18:20:23;99139.44;;;15.53;99.81
54876;BME280;40764;48.472;8.166;2022-10-17T18:26:23;99143.72;;;15.45;99.99
54876;BME280;40764;48.472;8.166;2022-10-17T18:32:24;99144.63;;;15.40;100.00
54876;BME280;40764;48.472;8.166;2022-10-17T18:38:24;99149.44;;;15.35;99.93
54876;BME280;40764;48.472;8.166;2022-10-17T18:44:25;99157.03;;;15.24;99.94
54876;BME280;40764;48.472;8.166;2022-10-17T18:50:25;99153.66;;;15.13;100.00
54876;BME280;40764;48.472;8.166;2022-10-17T18:56:26;99145.28;;;15.05;100.00
54876;BME280;40764;48.472;8.166;2022-10-17T19:02:26;99149.06;;;15.09;100.00
54876;BME280;40764;48.472;8.166;2022-10-17T19:08:27;99144.38;;;15.09;100.00
54876;BME280;40764;48.472;8.166;2022-10-17T19:14:27;99148.03;;;15.05;100.00
54876;BME280;40764;48.472;8.166;2022-10-17T19:20:29;99134.72;;;14.93;100.00
54876;BME280;40764;48.472;8.166;2022-10-17T19:26:32;99136.34;;;14.94;100.00
54876;BME280;40764;48.472;8.166;2022-10-17T19:32:34;99142.56;;;14.86;100.00
54876;BME280;40764;48.472;8.166;2022-10-17T19:38:36;99156.09;;;14.82;100.00
54876;BME280;40764;48.472;8.166;2022-10-17T19:44:50;99143.31;;;14.73;100.00
54876;BME280;40764;48.472;8.166;2022-10-17T19:50:51;99137.88;;;14.68;100.00
54876;BME280;40764;48.472;8.166;2022-10-17T19:56:55;99132.69;;;14.66;100.00
54876;BME280;40764;48.472;8.166;2022-10-17T20:02:55;99138.06;;;14.57;100.00
54876;BME280;40764;48.472;8.166;2022-10-17T20:08:56;99131.22;;;14.55;100.00
54876;BME280;40764;48.472;8.166;2022-10-17T20:14:56;99130.31;;;14.60;100.00
54876;BME280;40764;48.472;8.166;2022-10-17T20:21:03;99135.41;;;14.52;100.00
54876;BME280;40764;48.472;8.166;2022-10-17T20:27:04;99136.81;;;14.50;100.00
54876;BME280;40764;48.472;8.166;2022-10-17T20:33:04;99145.66;;;14.47;100.00
54876;BME280;40764;48.472;8.166;2022-10-17T20:39:05;99155.03;;;14.46;100.00
54876;BME280;40764;48.472;8.166;2022-10-17T20:45:06;99159.59;;;14.32;100.00
54876;BME280;40764;48.472;8.166;2022-10-17T20:51:18;99156.53;;;14.33;100.00
54876;BME280;40764;48.472;8.166;2022-10-17T20:57:19;99160.69;;;14.31;100.00
54876;BME280;40764;48.472;8.166;2022-10-17T21:03:20;99168.34;;;14.34;100.00
54876;BME280;40764;48.472;8.166;2022-10-17T21:09:20;99167.81;;;14.13;100.00
54876;BME280;40764;48.472;8.166;2022-10-17T21:15:21;99173.00;;;14.14;100.00
54876;BME280;40764;48.472;8.166;2022-10-17T21:21:24;99171.44;;;14.08;100.00
54876;BME280;40764;48.472;8.166;2022-10-17T21:27:25;99179.03;;;14.16;100.00
54876;BME280;40764;48.472;8.166;2022-10-17T21:33:27;99176.25;;;14.21;100.00
54876;BME280;40764;48.472;8.166;2022-10-17T21:39:27;99174.53;;;14.25;100.00
54876;BME280;40764;48.472;8.166;2022-10-17T21:45:28;99169.84;;;14.26;100.00
54876;BME280;40764;48.472;8.166;2022-10-17T21:51:28;99170.06;;;14.30;100.00
54876;BME280;40764;48.472;8.166;2022-10-17T21:57:29;99163.91;;;14.38;100.00
54876;BME280;40764;48.472;8.166;2022-10-17T22:03:34;99167.13;;;14.45;100.00
54876;BME280;40764;48.472;8.166;2022-10-17T22:09:35;99167.00;;;14.55;100.00
54876;BME280;40764;48.472;8.166;2022-10-17T22:15:35;99161.69;;;14.59;100.00
54876;BME280;40764;48.472;8.166;2022-10-17T22:21:36;99160.88;;;14.58;100.00
54876;BME280;40764;48.472;8.166;2022-10-17T22:27:36;99153.84;;;14.52;100.00
54876;BME280;40764;48.472;8.166;2022-10-17T22:33:38;99152.94;;;14.56;100.00
54876;BME280;40764;48.472;8.166;2022-10-17T22:39:39;99146.31;;;14.57;100.00
54876;BME280;40764;48.472;8.166;2022-10-17T22:45:39;99142.16;;;14.60;100.00
54876;BME280;40764;48.472;8.166;2022-10-17T22:51:40;99136.34;;;14.62;100.00
54876;BME280;40764;48.472;8.166;2022-10-17T22:57:40;99131.88;;;14.66;100.00
54876;BME280;40764;48.472;8.166;2022-10-17T23:03:41;99122.72;;;14.70;100.00
54876;BME280;40764;48.472;8.166;2022-10-17T23:09:42;99120.25;;;14.69;100.00
54876;BME280;40764;48.472;8.166;2022-10-17T23:15:42;99128.97;;;14.76;100.00
54876;BME280;40764;48.472;8.166;2022-10-17T23:21:43;99112.31;;;14.67;100.00
54876;BME280;40764;48.472;8.166;2022-10-17T23:27:54;99113.59;;;14.75;100.00
54876;BME280;40764;48.472;8.166;2022-10-17T23:33:55;99107.47;;;14.78;100.00
54876;BME280;40764;48.472;8.166;2022-10-17T23:39:55;99095.50;;;14.69;100.00
54876;BME280;40764;48.472;8.166;2022-10-17T23:45:56;99105.84;;;14.77;100.00
54876;BME280;40764;48.472;8.166;2022-10-17T23:51:57;99101.47;;;14.76;100.00
54876;BME280;40764;48.472;8.166;2022-10-17T23:57:57;99105.22;;;14.80;100.00
